sensor_id;sensor_type;location;lat;lon;timestamp;P1;durP1;ratioP1;P2;durP2;ratioP2
325;SDS011;150;52.352;14.058;2023-08-17T00:01:33;4.00;;;2.00;;
325;SDS011;150;52.352;14.058;2023-08-17T00:04:00;3.38;;;2.10;;
325;SDS011;150;52.352;14.058;2023-08-17T00:06:27;4.43;;;2.10;;
325;SDS011;150;52.352;14.058;2023-08-17T00:08:53;4.97;;;3.00;;
325;SDS011;150;52.352;14.058;2023-08-17T00:11:20;4.45;;;2.63;;
325;SDS011;150;52.352;14.058;2023-08-17T00:13:47;2.80;;;2.08;;
325;SDS011;150;52.352;14.058;2023-08-17T00:16:13;3.88;;;2.20;;
325;SDS011;150;52.352;14.058;2023-08-17T00:18:41;3.38;;;2.53;;
325;SDS011;150;52.352;14.058;2023-08-17T00:21:08;4.65;;;2.20;;
325;SDS011;150;52.352;14.058;2023-08-17T00:23:35;2.92;;;1.90;;
325;SDS011;150;52.352;14.058;2023-08-17T00:26:02;3.15;;;2.20;;
325;SDS011;150;52.352;14.058;2023-08-17T00:28:28;4.70;;;2.20;;
325;SDS011;150;52.352;14.058;2023-08-17T00:30:55;6.82;;;2.55;;
325;SDS011;150;52.352;14.058;2023-08-17T00:33:22;3.07;;;1.80;;
325;SDS011;150;52.352;14.058;2023-08-17T00:35:49;4.55;;;1.98;;
325;SDS011;150;52.352;14.058;2023-08-17T00:38:16;3.53;;;2.35;;
325;SDS011;150;52.352;14.058;2023-08-17T00:40:43;4.65;;;1.80;;
325;SDS011;150;52.352;14.058;2023-08-17T00:43:09;3.70;;;2.50;;
325;SDS011;150;52.352;14.058;2023-08-17T00:45:36;2.20;;;1.88;;
325;SDS011;150;52.352;14.058;2023-08-17T00:48:03;3.88;;;1.63;;
325;SDS011;150;52.352;14.058;2023-08-17T00:50:32;6.18;;;2.60;;
325;SDS011;150;52.352;14.058;2023-08-17T00:53:01;2.70;;;1.85;;
325;SDS011;150;52.352;14.058;2023-08-17T00:55:29;3.90;;;2.00;;
325;SDS011;150;52.352;14.058;2023-08-17T00:57:56;3.20;;;2.30;;
325;SDS011;150;52.352;14.058;2023-08-17T01:00:23;4.07;;;2.13;;
325;SDS011;150;52.352;14.058;2023-08-17T01:02:51;2.97;;;2.25;;
325;SDS011;150;52.352;14.058;2023-08-17T01:05:20;3.50;;;2.00;;
325;SDS011;150;52.352;14.058;2023-08-17T01:07:46;4.15;;;1.83;;
325;SDS011;150;52.352;14.058;2023-08-17T01:10:14;2.85;;;2.00;;
325;SDS011;150;52.352;14.058;2023-08-17T01:12:44;4.20;;;2.20;;
325;SDS011;150;52.352;14.058;2023-08-17T01:15:19;4.68;;;2.60;;
325;SDS011;150;52.352;14.058;2023-08-17T01:17:54;2.80;;;2.08;;
325;SDS011;150;52.352;14.058;2023-08-17T01:20:24;2.33;;;2.10;;
325;SDS011;150;52.352;14.058;2023-08-17T01:22:52;3.17;;;2.10;;
325;SDS011;150;52.352;14.058;2023-08-17T01:25:24;2.90;;;2.10;;
325;SDS011;150;52.352;14.058;2023-08-17T01:27:50;6.05;;;2.10;;
325;SDS011;150;52.352;14.058;2023-08-17T01:30:17;3.70;;;2.57;;
325;SDS011;150;52.352;14.058;2023-08-17T01:32:47;2.70;;;2.00;;
325;SDS011;150;52.352;14.058;2023-08-17T01:35:19;5.28;;;2.90;;
325;SDS011;150;52.352;14.058;2023-08-17T01:37:52;3.47;;;2.20;;
325;SDS011;150;52.352;14.058;2023-08-17T01:40:21;3.78;;;2.30;;
325;SDS011;150;52.352;14.058;2023-08-17T01:42:50;4.53;;;2.27;;
325;SDS011;150;52.352;14.058;2023-08-17T01:45:17;3.72;;;2.13;;
325;SDS011;150;52.352;14.058;2023-08-17T01:47:44;5.40;;;2.33;;
325;SDS011;150;52.352;14.058;2023-08-17T01:50:11;3.60;;;2.20;;
325;SDS011;150;52.352;14.058;2023-08-17T01:52:37;4.00;;;2.67;;
325;SDS011;150;52.352;14.058;2023-08-17T01:55:04;4.05;;;2.60;;
325;SDS011;150;52.352;14.058;2023-08-17T01:57:31;2.67;;;1.92;;
325;SDS011;150;52.352;14.058;2023-08-17T01:59:59;2.97;;;1.80;;
325;SDS011;150;52.352;14.058;2023-08-17T02:02:26;2.42;;;2.08;;
325;SDS011;150;52.352;14.058;2023-08-17T02:04:53;3.03;;;2.20;;
325;SDS011;150;52.352;14.058;2023-08-17T02:07:19;3.97;;;2.40;;
325;SDS011;150;52.352;14.058;2023-08-17T02:09:46;5.55;;;2.42;;
325;SDS011;150;52.352;14.058;2023-08-17T02:12:13;5.43;;;2.45;;
325;SDS011;150;52.352;14.058;2023-08-17T02:14:39;3.00;;;2.28;;
325;SDS011;150;52.352;14.058;2023-08-17T02:17:07;4.07;;;2.28;;
325;SDS011;150;52.352;14.058;2023-08-17T02:19:34;5.85;;;2.03;;
325;SDS011;150;52.352;14.058;2023-08-17T02:22:01;2.97;;;2.25;;
325;SDS011;150;52.352;14.058;2023-08-17T02:24:28;3.10;;;2.42;;
325;SDS011;150;52.352;14.058;2023-08-17T02:26:54;2.60;;;1.85;;
325;SDS011;150;52.352;14.058;2023-08-17T02:29:21;4.28;;;2.85;;
325;SDS011;150;52.352;14.058;2023-08-17T02:31:48;5.13;;;1.80;;
325;SDS011;150;52.352;14.058;2023-08-17T02:34:16;3.10;;;2.20;;
325;SDS011;150;52.352;14.058;2023-08-17T02:36:42;3.88;;;2.00;;
325;SDS011;150;52.352;14.058;2023-08-17T02:39:09;3.45;;;1.80;;
325;SDS011;150;52.352;14.058;2023-08-17T02:41:36;3.90;;;2.50;;
325;SDS011;150;52.352;14.058;2023-08-17T02:44:02;3.00;;;2.00;;
325;SDS011;150;52.352;14.058;2023-08-17T02:46:30;3.37;;;2.30;;
325;SDS011;150;52.352;14.058;2023-08-17T02:48:56;2.90;;;2.03;;
325;SDS011;150;52.352;14.058;2023-08-17T02:51:24;2.50;;;2.08;;
325;SDS011;150;52.352;14.058;2023-08-17T02:53:51;3.73;;;2.00;;
325;SDS011;150;52.352;14.058;2023-08-17T02:56:18;2.72;;;1.55;;
325;SDS011;150;52.352;14.058;2023-08-17T02:58:44;4.07;;;2.38;;
325;SDS011;150;52.352;14.058;2023-08-17T03:01:11;2.78;;;1.92;;
325;SDS011;150;52.352;14.058;2023-08-17T03:03:37;2.30;;;1.92;;
325;SDS011;150;52.352;14.058;2023-08-17T03:06:04;3.30;;;1.93;;
325;SDS011;150;52.352;14.058;2023-08-17T03:08:32;3.70;;;2.20;;
325;SDS011;150;52.352;14.058;2023-08-17T03:10:59;2.42;;;1.80;;
325;SDS011;150;52.352;14.058;2023-08-17T03:13:26;2.47;;;1.92;;
325;SDS011;150;52.352;14.058;2023-08-17T03:15:54;3.92;;;2.60;;
325;SDS011;150;52.352;14.058;2023-08-17T03:18:20;4.20;;;2.20;;
325;SDS011;150;52.352;14.058;2023-08-17T03:20:47;4.38;;;2.58;;
325;SDS011;150;52.352;14.058;2023-08-17T03:23:14;3.40;;;2.30;;
325;SDS011;150;52.352;14.058;2023-08-17T03:25:42;3.17;;;2.05;;
325;SDS011;150;52.352;14.058;2023-08-17T03:28:10;6.10;;;2.47;;
325;SDS011;150;52.352;14.058;2023-08-17T03:30:37;4.57;;;2.83;;
325;SDS011;150;52.352;14.058;2023-08-17T03:33:04;2.38;;;2.00;;
325;SDS011;150;52.352;14.058;2023-08-17T03:35:30;4.68;;;2.35;;
325;SDS011;150;52.352;14.058;2023-08-17T03:37:57;3.55;;;2.50;;
325;SDS011;150;52.352;14.058;2023-08-17T03:40:24;4.13;;;2.70;;
325;SDS011;150;52.352;14.058;2023-08-17T03:42:52;3.42;;;2.28;;
325;SDS011;150;52.352;14.058;2023-08-17T03:45:18;5.15;;;2.40;;
325;SDS011;150;52.352;14.058;2023-08-17T03:47:45;3.40;;;2.30;;
325;SDS011;150;52.352;14.058;2023-08-17T03:50:11;2.17;;;1.80;;
325;SDS011;150;52.352;14.058;2023-08-17T03:52:38;3.55;;;3.03;;
325;SDS011;150;52.352;14.058;2023-08-17T03:55:05;3.50;;;2.50;;
325;SDS011;150;52.352;14.058;2023-08-17T03:57:32;4.18;;;2.13;;
325;SDS011;150;52.352;14.058;2023-08-17T04:00:00;4.15;;;2.70;;
325;SDS011;150;52.352;14.058;2023-08-17T04:02:27;3.85;;;2.35;;
325;SDS011;150;52.352;14.058;2023-08-17T04:04:54;3.13;;;2.20;;
325;SDS011;150;52.352;14.058;2023-08-17T04:07:21;3.30;;;2.00;;
325;SDS011;150;52.352;14.058;2023-08-17T04:09:48;3.13;;;2.10;;
325;SDS011;150;52.352;14.058;2023-08-17T04:12:15;7.00;;;2.95;;
325;SDS011;150;52.352;14.058;2023-08-17T04:14:41;4.00;;;2.30;;
325;SDS011;150;52.352;14.058;2023-08-17T04:17:09;5.85;;;3.15;;
325;SDS011;150;52.352;14.058;2023-08-17T04:19:37;4.38;;;2.63;;
325;SDS011;150;52.352;14.058;2023-08-17T04:22:04;3.05;;;2.10;;
325;SDS011;150;52.352;14.058;2023-08-17T04:24:30;5.03;;;2.57;;
325;SDS011;150;52.352;14.058;2023-08-17T04:26:57;3.50;;;2.10;;
325;SDS011;150;52.352;14.058;2023-08-17T04:29:24;4.20;;;2.05;;
325;SDS011;150;52.352;14.058;2023-08-17T04:31:50;3.15;;;2.00;;
325;SDS011;150;52.352;14.058;2023-08-17T04:34:18;3.30;;;2.30;;
325;SDS011;150;52.352;14.058;2023-08-17T04:36:45;2.40;;;1.95;;
325;SDS011;150;52.352;14.058;2023-08-17T04:39:12;4.05;;;2.50;;
325;SDS011;150;52.352;14.058;2023-08-17T04:41:38;3.50;;;2.45;;
325;SDS011;150;52.352;14.058;2023-08-17T04:44:05;3.00;;;2.30;;
325;SDS011;150;52.352;14.058;2023-08-17T04:46:32;3.30;;;2.20;;
325;SDS011;150;52.352;14.058;2023-08-17T04:48:59;5.28;;;2.13;;
325;SDS011;150;52.352;14.058;2023-08-17T04:51:26;2.60;;;1.83;;
325;SDS011;150;52.352;14.058;2023-08-17T04:53:53;4.10;;;2.30;;
325;SDS011;150;52.352;14.058;2023-08-17T04:56:20;6.80;;;2.70;;
325;SDS011;150;52.352;14.058;2023-08-17T04:58:46;3.53;;;2.25;;
325;SDS011;150;52.352;14.058;2023-08-17T05:01:13;5.15;;;2.10;;
325;SDS011;150;52.352;14.058;2023-08-17T05:03:39;3.33;;;2.47;;
325;SDS011;150;52.352;14.058;2023-08-17T05:06:06;3.80;;;2.50;;
325;SDS011;150;52.352;14.058;2023-08-17T05:08:35;2.70;;;2.20;;
325;SDS011;150;52.352;14.058;2023-08-17T05:11:01;5.43;;;2.77;;
325;SDS011;150;52.352;14.058;2023-08-17T05:13:28;3.85;;;2.13;;
325;SDS011;150;52.352;14.058;2023-08-17T05:15:54;3.10;;;2.28;;
325;SDS011;150;52.352;14.058;2023-08-17T05:18:21;3.63;;;2.40;;
325;SDS011;150;52.352;14.058;2023-08-17T05:20:48;3.78;;;2.00;;
325;SDS011;150;52.352;14.058;2023-08-17T05:23:15;3.10;;;2.20;;
325;SDS011;150;52.352;14.058;2023-08-17T05:25:45;5.03;;;2.40;;
325;SDS011;150;52.352;14.058;2023-08-17T05:28:12;5.13;;;2.22;;
325;SDS011;150;52.352;14.058;2023-08-17T05:30:38;4.85;;;2.47;;
325;SDS011;150;52.352;14.058;2023-08-17T05:33:05;6.07;;;2.70;;
325;SDS011;150;52.352;14.058;2023-08-17T05:35:32;6.50;;;2.77;;
325;SDS011;150;52.352;14.058;2023-08-17T05:37:58;5.13;;;2.80;;
325;SDS011;150;52.352;14.058;2023-08-17T05:40:26;4.50;;;2.50;;
325;SDS011;150;52.352;14.058;2023-08-17T05:42:56;2.90;;;2.20;;
325;SDS011;150;52.352;14.058;2023-08-17T05:45:23;3.15;;;2.95;;
325;SDS011;150;52.352;14.058;2023-08-17T05:47:49;6.47;;;2.42;;
325;SDS011;150;52.352;14.058;2023-08-17T05:50:16;3.60;;;2.30;;
325;SDS011;150;52.352;14.058;2023-08-17T05:52:42;3.28;;;2.58;;
325;SDS011;150;52.352;14.058;2023-08-17T05:55:09;5.20;;;2.50;;
325;SDS011;150;52.352;14.058;2023-08-17T05:57:36;3.70;;;2.27;;
325;SDS011;150;52.352;14.058;2023-08-17T06:00:05;2.97;;;2.20;;
325;SDS011;150;52.352;14.058;2023-08-17T06:02:35;3.58;;;2.05;;
325;SDS011;150;52.352;14.058;2023-08-17T06:05:02;5.93;;;2.70;;
325;SDS011;150;52.352;14.058;2023-08-17T06:07:29;3.88;;;2.40;;
325;SDS011;150;52.352;14.058;2023-08-17T06:09:55;2.73;;;2.10;;
325;SDS011;150;52.352;14.058;2023-08-17T06:12:22;5.03;;;2.45;;
325;SDS011;150;52.352;14.058;2023-08-17T06:14:49;3.90;;;3.00;;
325;SDS011;150;52.352;14.058;2023-08-17T06:17:17;5.45;;;3.30;;
325;SDS011;150;52.352;14.058;2023-08-17T06:19:43;2.80;;;2.00;;
325;SDS011;150;52.352;14.058;2023-08-17T06:22:10;4.10;;;2.55;;
325;SDS011;150;52.352;14.058;2023-08-17T06:24:37;5.70;;;2.50;;
325;SDS011;150;52.352;14.058;2023-08-17T06:27:03;4.30;;;2.30;;
325;SDS011;150;52.352;14.058;2023-08-17T06:29:30;3.55;;;1.98;;
325;SDS011;150;52.352;14.058;2023-08-17T06:31:57;6.10;;;4.38;;
325;SDS011;150;52.352;14.058;2023-08-17T06:34:25;3.53;;;2.20;;
325;SDS011;150;52.352;14.058;2023-08-17T06:36:57;4.18;;;2.20;;
325;SDS011;150;52.352;14.058;2023-08-17T06:39:25;4.00;;;2.35;;
325;SDS011;150;52.352;14.058;2023-08-17T06:41:52;2.93;;;1.80;;
325;SDS011;150;52.352;14.058;2023-08-17T06:44:19;2.83;;;2.20;;
325;SDS011;150;52.352;14.058;2023-08-17T06:46:45;6.60;;;2.20;;
325;SDS011;150;52.352;14.058;2023-08-17T06:49:13;2.17;;;1.80;;
325;SDS011;150;52.352;14.058;2023-08-17T06:51:41;3.97;;;2.23;;
325;SDS011;150;52.352;14.058;2023-08-17T06:54:07;3.00;;;2.00;;
325;SDS011;150;52.352;14.058;2023-08-17T06:56:34;3.17;;;2.07;;
325;SDS011;150;52.352;14.058;2023-08-17T06:59:01;2.78;;;1.95;;
325;SDS011;150;52.352;14.058;2023-08-17T07:01:28;2.30;;;2.00;;
325;SDS011;150;52.352;14.058;2023-08-17T07:03:55;6.00;;;4.93;;
325;SDS011;150;52.352;14.058;2023-08-17T07:06:22;3.38;;;2.08;;
325;SDS011;150;52.352;14.058;2023-08-17T07:08:50;4.47;;;2.20;;
325;SDS011;150;52.352;14.058;2023-08-17T07:11:17;3.60;;;2.30;;
325;SDS011;150;52.352;14.058;2023-08-17T07:13:44;4.47;;;2.50;;
325;SDS011;150;52.352;14.058;2023-08-17T07:16:11;3.90;;;2.30;;
325;SDS011;150;52.352;14.058;2023-08-17T07:18:38;6.85;;;2.65;;
325;SDS011;150;52.352;14.058;2023-08-17T07:21:05;4.30;;;2.20;;
325;SDS011;150;52.352;14.058;2023-08-17T07:23:32;3.90;;;2.63;;
325;SDS011;150;52.352;14.058;2023-08-17T07:26:00;3.90;;;2.28;;
325;SDS011;150;52.352;14.058;2023-08-17T07:28:26;4.23;;;2.73;;
325;SDS011;150;52.352;14.058;2023-08-17T07:30:53;3.50;;;2.00;;
325;SDS011;150;52.352;14.058;2023-08-17T07:33:20;3.63;;;2.40;;
325;SDS011;150;52.352;14.058;2023-08-17T07:35:47;2.60;;;2.22;;
325;SDS011;150;52.352;14.058;2023-08-17T07:38:13;5.47;;;2.35;;
325;SDS011;150;52.352;14.058;2023-08-17T07:40:40;3.63;;;2.00;;
325;SDS011;150;52.352;14.058;2023-08-17T07:43:09;3.58;;;2.30;;
325;SDS011;150;52.352;14.058;2023-08-17T07:45:36;4.60;;;2.30;;
325;SDS011;150;52.352;14.058;2023-08-17T07:48:03;3.40;;;2.47;;
325;SDS011;150;52.352;14.058;2023-08-17T07:50:30;4.20;;;2.03;;
325;SDS011;150;52.352;14.058;2023-08-17T07:52:56;2.13;;;2.03;;
325;SDS011;150;52.352;14.058;2023-08-17T07:55:23;3.42;;;2.53;;
325;SDS011;150;52.352;14.058;2023-08-17T07:57:49;2.90;;;2.10;;
325;SDS011;150;52.352;14.058;2023-08-17T08:00:18;4.50;;;3.00;;
325;SDS011;150;52.352;14.058;2023-08-17T08:02:45;3.10;;;2.58;;
325;SDS011;150;52.352;14.058;2023-08-17T08:05:12;3.80;;;1.90;;
325;SDS011;150;52.352;14.058;2023-08-17T08:07:39;2.42;;;2.00;;
325;SDS011;150;52.352;14.058;2023-08-17T08:10:06;3.25;;;2.30;;
325;SDS011;150;52.352;14.058;2023-08-17T08:12:33;4.05;;;1.88;;
325;SDS011;150;52.352;14.058;2023-08-17T08:15:00;4.25;;;2.70;;
325;SDS011;150;52.352;14.058;2023-08-17T08:17:27;5.13;;;2.42;;
325;SDS011;150;52.352;14.058;2023-08-17T08:19:54;5.93;;;4.40;;
325;SDS011;150;52.352;14.058;2023-08-17T08:22:21;3.30;;;2.40;;
325;SDS011;150;52.352;14.058;2023-08-17T08:24:48;2.85;;;2.13;;
325;SDS011;150;52.352;14.058;2023-08-17T08:27:15;4.60;;;2.50;;
325;SDS011;150;52.352;14.058;2023-08-17T08:29:41;3.97;;;2.20;;
325;SDS011;150;52.352;14.058;2023-08-17T08:32:08;3.75;;;2.40;;
325;SDS011;150;52.352;14.058;2023-08-17T08:34:36;3.70;;;2.90;;
325;SDS011;150;52.352;14.058;2023-08-17T08:37:03;3.47;;;2.60;;
325;SDS011;150;52.352;14.058;2023-08-17T08:39:29;3.72;;;2.70;;
325;SDS011;150;52.352;14.058;2023-08-17T08:41:56;3.90;;;2.80;;
325;SDS011;150;52.352;14.058;2023-08-17T08:44:24;6.30;;;2.80;;
325;SDS011;150;52.352;14.058;2023-08-17T08:46:50;5.78;;;2.92;;
325;SDS011;150;52.352;14.058;2023-08-17T08:49:20;3.50;;;3.10;;
325;SDS011;150;52.352;14.058;2023-08-17T08:51:50;4.55;;;2.95;;
325;SDS011;150;52.352;14.058;2023-08-17T08:54:18;4.80;;;3.10;;
325;SDS011;150;52.352;14.058;2023-08-17T08:56:51;5.15;;;2.65;;
325;SDS011;150;52.352;14.058;2023-08-17T08:59:23;4.40;;;2.63;;
325;SDS011;150;52.352;14.058;2023-08-17T09:01:52;5.57;;;2.80;;
325;SDS011;150;52.352;14.058;2023-08-17T09:04:19;5.45;;;3.20;;
325;SDS011;150;52.352;14.058;2023-08-17T09:06:45;5.00;;;2.90;;
325;SDS011;150;52.352;14.058;2023-08-17T09:09:15;5.43;;;2.70;;
325;SDS011;150;52.352;14.058;2023-08-17T09:11:42;5.70;;;2.70;;
325;SDS011;150;52.352;14.058;2023-08-17T09:14:09;3.97;;;2.60;;
325;SDS011;150;52.352;14.058;2023-08-17T09:16:35;4.13;;;2.70;;
325;SDS011;150;52.352;14.058;2023-08-17T09:19:02;4.95;;;2.78;;
325;SDS011;150;52.352;14.058;2023-08-17T09:21:31;6.17;;;2.97;;
325;SDS011;150;52.352;14.058;2023-08-17T09:23:58;3.00;;;2.80;;
325;SDS011;150;52.352;14.058;2023-08-17T09:26:30;7.68;;;3.75;;
325;SDS011;150;52.352;14.058;2023-08-17T09:28:57;4.70;;;3.00;;
325;SDS011;150;52.352;14.058;2023-08-17T09:31:24;3.88;;;3.13;;
325;SDS011;150;52.352;14.058;2023-08-17T09:33:51;3.55;;;2.80;;
325;SDS011;150;52.352;14.058;2023-08-17T09:36:19;4.00;;;2.95;;
325;SDS011;150;52.352;14.058;2023-08-17T09:38:47;4.57;;;3.10;;
325;SDS011;150;52.352;14.058;2023-08-17T09:41:14;4.37;;;2.90;;
325;SDS011;150;52.352;14.058;2023-08-17T09:43:42;3.60;;;2.92;;
325;SDS011;150;52.352;14.058;2023-08-17T09:46:09;3.42;;;3.10;;
325;SDS011;150;52.352;14.058;2023-08-17T09:48:36;6.00;;;3.47;;
325;SDS011;150;52.352;14.058;2023-08-17T09:51:02;5.80;;;3.30;;
325;SDS011;150;52.352;14.058;2023-08-17T09:53:33;3.10;;;2.80;;
325;SDS011;150;52.352;14.058;2023-08-17T09:56:01;6.80;;;3.90;;
325;SDS011;150;52.352;14.058;2023-08-17T09:58:29;3.92;;;2.92;;
325;SDS011;150;52.352;14.058;2023-08-17T10:00:57;4.20;;;3.50;;
325;SDS011;150;52.352;14.058;2023-08-17T10:03:27;5.13;;;4.85;;
325;SDS011;150;52.352;14.058;2023-08-17T10:05:56;5.17;;;4.30;;
325;SDS011;150;52.352;14.058;2023-08-17T10:08:27;5.10;;;4.28;;
325;SDS011;150;52.352;14.058;2023-08-17T10:10:57;6.20;;;4.40;;
325;SDS011;150;52.352;14.058;2023-08-17T10:13:26;5.22;;;3.97;;
325;SDS011;150;52.352;14.058;2023-08-17T10:16:02;6.60;;;3.40;;
325;SDS011;150;52.352;14.058;2023-08-17T10:18:36;4.45;;;3.75;;
325;SDS011;150;52.352;14.058;2023-08-17T10:21:10;7.22;;;4.03;;
325;SDS011;150;52.352;14.058;2023-08-17T10:23:42;3.85;;;3.58;;
325;SDS011;150;52.352;14.058;2023-08-17T10:26:10;4.20;;;3.07;;
325;SDS011;150;52.352;14.058;2023-08-17T10:28:37;3.97;;;3.40;;
325;SDS011;150;52.352;14.058;2023-08-17T10:31:06;4.10;;;3.43;;
325;SDS011;150;52.352;14.058;2023-08-17T10:33:33;4.97;;;3.70;;
325;SDS011;150;52.352;14.058;2023-08-17T10:36:00;4.73;;;3.40;;
325;SDS011;150;52.352;14.058;2023-08-17T10:38:27;4.07;;;3.60;;
325;SDS011;150;52.352;14.058;2023-08-17T10:41:09;4.25;;;3.63;;
325;SDS011;150;52.352;14.058;2023-08-17T10:43:55;4.10;;;3.67;;
325;SDS011;150;52.352;14.058;2023-08-17T10:46:33;4.50;;;3.72;;
325;SDS011;150;52.352;14.058;2023-08-17T10:49:03;4.40;;;3.90;;
325;SDS011;150;52.352;14.058;2023-08-17T10:51:31;5.05;;;3.95;;
325;SDS011;150;52.352;14.058;2023-08-17T10:53:58;4.80;;;4.45;;
325;SDS011;150;52.352;14.058;2023-08-17T10:56:27;5.22;;;3.80;;
325;SDS011;150;52.352;14.058;2023-08-17T10:58:58;6.00;;;3.90;;
325;SDS011;150;52.352;14.058;2023-08-17T11:01:34;4.30;;;3.28;;
325;SDS011;150;52.352;14.058;2023-08-17T11:04:12;5.15;;;3.92;;
325;SDS011;150;52.352;14.058;2023-08-17T11:06:42;4.50;;;3.70;;
325;SDS011;150;52.352;14.058;2023-08-17T11:09:09;4.20;;;3.75;;
325;SDS011;150;52.352;14.058;2023-08-17T11:11:36;7.20;;;3.83;;
325;SDS011;150;52.352;14.058;2023-08-17T11:14:03;6.72;;;5.93;;
325;SDS011;150;52.352;14.058;2023-08-17T11:16:30;4.63;;;4.05;;
325;SDS011;150;52.352;14.058;2023-08-17T11:18:59;6.40;;;3.30;;
325;SDS011;150;52.352;14.058;2023-08-17T11:21:26;5.20;;;4.05;;
325;SDS011;150;52.352;14.058;2023-08-17T11:23:55;4.40;;;3.70;;
325;SDS011;150;52.352;14.058;2023-08-17T11:26:22;6.47;;;4.50;;
325;SDS011;150;52.352;14.058;2023-08-17T11:28:49;6.38;;;3.83;;
325;SDS011;150;52.352;14.058;2023-08-17T11:31:16;4.43;;;3.33;;
325;SDS011;150;52.352;14.058;2023-08-17T11:33:43;6.40;;;3.70;;
325;SDS011;150;52.352;14.058;2023-08-17T11:36:13;4.13;;;3.80;;
325;SDS011;150;52.352;14.058;2023-08-17T11:38:40;4.32;;;4.03;;
325;SDS011;150;52.352;14.058;2023-08-17T11:41:08;4.43;;;3.90;;
325;SDS011;150;52.352;14.058;2023-08-17T11:43:36;4.30;;;3.88;;
325;SDS011;150;52.352;14.058;2023-08-17T11:46:03;3.40;;;3.23;;
325;SDS011;150;52.352;14.058;2023-08-17T11:48:31;3.92;;;3.72;;
325;SDS011;150;52.352;14.058;2023-08-17T11:50:57;4.53;;;3.35;;
325;SDS011;150;52.352;14.058;2023-08-17T11:53:25;5.68;;;4.00;;
325;SDS011;150;52.352;14.058;2023-08-17T11:55:59;5.43;;;3.70;;
325;SDS011;150;52.352;14.058;2023-08-17T11:58:35;4.90;;;3.63;;
325;SDS011;150;52.352;14.058;2023-08-17T12:01:08;5.70;;;4.38;;
325;SDS011;150;52.352;14.058;2023-08-17T12:03:35;5.30;;;4.00;;
325;SDS011;150;52.352;14.058;2023-08-17T12:06:02;5.88;;;4.40;;
325;SDS011;150;52.352;14.058;2023-08-17T12:08:31;4.13;;;3.33;;
325;SDS011;150;52.352;14.058;2023-08-17T12:10:58;4.30;;;3.80;;
325;SDS011;150;52.352;14.058;2023-08-17T12:13:29;4.73;;;3.50;;
325;SDS011;150;52.352;14.058;2023-08-17T12:15:56;4.60;;;3.85;;
325;SDS011;150;52.352;14.058;2023-08-17T12:18:24;4.30;;;3.30;;
325;SDS011;150;52.352;14.058;2023-08-17T12:20:52;5.73;;;4.23;;
325;SDS011;150;52.352;14.058;2023-08-17T12:23:19;5.57;;;3.45;;
325;SDS011;150;52.352;14.058;2023-08-17T12:25:47;4.90;;;3.40;;
325;SDS011;150;52.352;14.058;2023-08-17T12:28:18;4.45;;;3.72;;
325;SDS011;150;52.352;14.058;2023-08-17T12:30:45;6.30;;;3.90;;
325;SDS011;150;52.352;14.058;2023-08-17T12:33:12;5.70;;;3.70;;
325;SDS011;150;52.352;14.058;2023-08-17T12:35:38;3.60;;;3.00;;
325;SDS011;150;52.352;14.058;2023-08-17T12:38:05;4.70;;;3.50;;
325;SDS011;150;52.352;14.058;2023-08-17T12:40:32;4.43;;;3.55;;
325;SDS011;150;52.352;14.058;2023-08-17T12:43:00;5.13;;;4.20;;
325;SDS011;150;52.352;14.058;2023-08-17T12:45:26;5.85;;;4.00;;
325;SDS011;150;52.352;14.058;2023-08-17T12:47:54;5.18;;;3.60;;
325;SDS011;150;52.352;14.058;2023-08-17T12:50:21;5.40;;;3.67;;
325;SDS011;150;52.352;14.058;2023-08-17T12:52:48;4.75;;;3.40;;
325;SDS011;150;52.352;14.058;2023-08-17T12:55:15;4.10;;;3.63;;
325;SDS011;150;52.352;14.058;2023-08-17T12:57:43;3.55;;;2.60;;
325;SDS011;150;52.352;14.058;2023-08-17T13:00:12;5.20;;;3.60;;
325;SDS011;150;52.352;14.058;2023-08-17T13:02:39;4.18;;;3.70;;
325;SDS011;150;52.352;14.058;2023-08-17T13:05:06;5.13;;;3.88;;
325;SDS011;150;52.352;14.058;2023-08-17T13:07:33;5.68;;;3.78;;
325;SDS011;150;52.352;14.058;2023-08-17T13:09:59;3.50;;;3.15;;
325;SDS011;150;52.352;14.058;2023-08-17T13:12:26;4.20;;;3.70;;
325;SDS011;150;52.352;14.058;2023-08-17T13:14:52;4.65;;;3.13;;
325;SDS011;150;52.352;14.058;2023-08-17T13:17:20;5.20;;;3.40;;
325;SDS011;150;52.352;14.058;2023-08-17T13:19:47;4.40;;;3.10;;
325;SDS011;150;52.352;14.058;2023-08-17T13:22:14;4.38;;;3.30;;
325;SDS011;150;52.352;14.058;2023-08-17T13:24:40;3.97;;;3.20;;
325;SDS011;150;52.352;14.058;2023-08-17T13:27:07;4.47;;;3.35;;
325;SDS011;150;52.352;14.058;2023-08-17T13:29:34;3.40;;;3.10;;
325;SDS011;150;52.352;14.058;2023-08-17T13:32:03;3.60;;;3.20;;
325;SDS011;150;52.352;14.058;2023-08-17T13:34:31;3.60;;;3.30;;
325;SDS011;150;52.352;14.058;2023-08-17T13:36:58;4.50;;;3.72;;
325;SDS011;150;52.352;14.058;2023-08-17T13:39:24;4.47;;;3.00;;
325;SDS011;150;52.352;14.058;2023-08-17T13:41:51;4.18;;;3.70;;
325;SDS011;150;52.352;14.058;2023-08-17T13:44:18;4.00;;;3.50;;
325;SDS011;150;52.352;14.058;2023-08-17T13:46:44;4.20;;;2.92;;
325;SDS011;150;52.352;14.058;2023-08-17T13:49:11;3.83;;;3.28;;
325;SDS011;150;52.352;14.058;2023-08-17T13:51:39;3.50;;;2.90;;
325;SDS011;150;52.352;14.058;2023-08-17T13:54:05;4.40;;;3.08;;
325;SDS011;150;52.352;14.058;2023-08-17T13:56:32;4.63;;;3.20;;
325;SDS011;150;52.352;14.058;2023-08-17T13:58:58;3.58;;;2.97;;
325;SDS011;150;52.352;14.058;2023-08-17T14:01:25;4.80;;;2.90;;
325;SDS011;150;52.352;14.058;2023-08-17T14:03:51;3.65;;;3.22;;
325;SDS011;150;52.352;14.058;2023-08-17T14:06:18;3.85;;;3.50;;
325;SDS011;150;52.352;14.058;2023-08-17T14:08:46;4.72;;;3.50;;
325;SDS011;150;52.352;14.058;2023-08-17T14:11:13;2.60;;;2.22;;
325;SDS011;150;52.352;14.058;2023-08-17T14:13:39;4.20;;;3.72;;
325;SDS011;150;52.352;14.058;2023-08-17T14:16:06;4.60;;;3.30;;
325;SDS011;150;52.352;14.058;2023-08-17T14:18:32;5.35;;;3.53;;
325;SDS011;150;52.352;14.058;2023-08-17T14:20:59;4.60;;;4.13;;
325;SDS011;150;52.352;14.058;2023-08-17T14:23:25;3.80;;;3.55;;
325;SDS011;150;52.352;14.058;2023-08-17T14:25:53;4.78;;;3.72;;
325;SDS011;150;52.352;14.058;2023-08-17T14:28:20;4.60;;;3.50;;
325;SDS011;150;52.352;14.058;2023-08-17T14:30:46;4.30;;;3.17;;
325;SDS011;150;52.352;14.058;2023-08-17T14:33:13;5.40;;;3.30;;
325;SDS011;150;52.352;14.058;2023-08-17T14:35:40;3.90;;;3.43;;
325;SDS011;150;52.352;14.058;2023-08-17T14:38:07;5.57;;;3.20;;
325;SDS011;150;52.352;14.058;2023-08-17T14:40:34;3.53;;;3.38;;
325;SDS011;150;52.352;14.058;2023-08-17T14:43:02;3.90;;;3.70;;
325;SDS011;150;52.352;14.058;2023-08-17T14:45:29;3.72;;;3.40;;
325;SDS011;150;52.352;14.058;2023-08-17T14:47:56;4.35;;;3.40;;
325;SDS011;150;52.352;14.058;2023-08-17T14:50:23;3.60;;;3.17;;
325;SDS011;150;52.352;14.058;2023-08-17T14:52:50;4.18;;;3.30;;
325;SDS011;150;52.352;14.058;2023-08-17T14:55:17;3.80;;;3.60;;
325;SDS011;150;52.352;14.058;2023-08-17T14:57:43;5.05;;;3.40;;
325;SDS011;150;52.352;14.058;2023-08-17T15:00:12;3.30;;;2.70;;
325;SDS011;150;52.352;14.058;2023-08-17T15:02:39;3.90;;;3.20;;
325;SDS011;150;52.352;14.058;2023-08-17T15:05:06;4.80;;;2.95;;
325;SDS011;150;52.352;14.058;2023-08-17T15:07:33;5.20;;;2.80;;
325;SDS011;150;52.352;14.058;2023-08-17T15:09:59;3.42;;;2.85;;
325;SDS011;150;52.352;14.058;2023-08-17T15:12:26;7.55;;;3.70;;
325;SDS011;150;52.352;14.058;2023-08-17T15:14:52;3.78;;;3.22;;
325;SDS011;150;52.352;14.058;2023-08-17T15:17:20;3.50;;;3.30;;
325;SDS011;150;52.352;14.058;2023-08-17T15:19:47;4.80;;;3.40;;
325;SDS011;150;52.352;14.058;2023-08-17T15:22:13;4.38;;;3.10;;
325;SDS011;150;52.352;14.058;2023-08-17T15:24:40;3.80;;;3.30;;
325;SDS011;150;52.352;14.058;2023-08-17T15:27:08;4.70;;;2.83;;
325;SDS011;150;52.352;14.058;2023-08-17T15:29:35;4.40;;;3.13;;
325;SDS011;150;52.352;14.058;2023-08-17T15:32:01;3.60;;;3.50;;